sensor_id;sensor_type;location;lat;lon;timestamp;P1;P2;P0
64861;PMS5003;62652;42.274;-71.436;2022-09-16T00:00:00;13.83;12.53;9.60
64861;PMS5003;62652;42.274;-71.436;2022-09-16T00:01:00;11.00;10.80;6.87
64861;PMS5003;62652;42.274;-71.436;2022-09-16T00:02:00;6.87;5.93;4.97
64861;PMS5003;62652;42.274;-71.436;2022-09-16T00:03:00;5.77;4.67;3.63
64861;PMS5003;62652;42.274;-71.436;2022-09-16T00:04:00;5.40;5.40;4.07
64861;PMS5003;62652;42.274;-71.436;2022-09-16T00:05:00;3.43;2.97;2.27
64861;PMS5003;62652;42.274;-71.436;2022-09-16T00:06:00;1.90;1.90;1.03
64861;PMS5003;62652;42.274;-71.436;2022-09-16T00:07:00;4.00;3.97;2.97
64861;PMS5003;62652;42.274;-71.436;2022-09-16T00:08:00;4.60;3.33;2.03
64861;PMS5003;62652;42.274;-71.436;2022-09-16T00:09:00;3.73;3.73;2.17
64861;PMS5003;62652;42.274;-71.436;2022-09-16T00:10:00;5.03;4.83;2.97
64861;PMS5003;62652;42.274;-71.436;2022-09-16T00:11:00;3.80;3.80;2.47
64861;PMS5003;62652;42.274;-71.436;2022-09-16T00:12:00;1.70;1.70;1.20
64861;PMS5003;62652;42.274;-71.436;2022-09-16T00:13:00;1.20;0.90;0.90
64861;PMS5003;62652;42.274;-71.436;2022-09-16T00:14:00;0.87;0.77;0.00
64861;PMS5003;62652;42.274;-71.436;2022-09-16T00:15:00;0.00;0.00;0.00
64861;PMS5003;62652;42.274;-71.436;2022-09-16T00:16:00;0.20;0.20;0.00
64861;PMS5003;62652;42.274;-71.436;2022-09-16T00:17:00;0.93;0.93;0.87
64861;PMS5003;62652;42.274;-71.436;2022-09-16T00:18:00;0.10;0.10;0.00
64861;PMS5003;62652;42.274;-71.436;2022-09-16T00:19:00;0.40;0.40;0.07
64861;PMS5003;62652;42.274;-71.436;2022-09-16T00:20:00;0.33;0.33;0.00
64861;PMS5003;62652;42.274;-71.436;2022-09-16T00:21:00;1.00;1.00;0.13
64861;PMS5003;62652;42.274;-71.436;2022-09-16T00:22:00;0.50;0.50;0.10
64861;PMS5003;62652;42.274;-71.436;2022-09-16T00:23:00;0.97;0.73;0.73
64861;PMS5003;62652;42.274;-71.436;2022-09-16T00:24:00;0.73;0.10;0.00
64861;PMS5003;62652;42.274;-71.436;2022-09-16T00:25:00;2.07;2.07;0.93
64861;PMS5003;62652;42.274;-71.436;2022-09-16T00:26:00;2.00;2.00;1.87
64861;PMS5003;62652;42.274;-71.436;2022-09-16T00:27:00;1.97;1.33;0.70
64861;PMS5003;62652;42.274;-71.436;2022-09-16T00:28:00;0.87;0.87;0.37
64861;PMS5003;62652;42.274;-71.436;2022-09-16T00:29:00;1.67;0.93;0.77
64861;PMS5003;62652;42.274;-71.436;2022-09-16T00:30:00;2.00;1.57;1.10
64861;PMS5003;62652;42.274;-71.436;2022-09-16T00:31:00;1.00;0.73;0.73
64861;PMS5003;62652;42.274;-71.436;2022-09-16T00:32:00;0.93;0.90;0.73
64861;PMS5003;62652;42.274;-71.436;2022-09-16T00:33:00;1.00;1.00;0.13
64861;PMS5003;62652;42.274;-71.436;2022-09-16T00:34:00;0.00;0.00;0.00
64861;PMS5003;62652;42.274;-71.436;2022-09-16T00:35:00;0.77;0.77;0.10
64861;PMS5003;62652;42.274;-71.436;2022-09-16T00:36:04;0.87;0.87;0.23
64861;PMS5003;62652;42.274;-71.436;2022-09-16T00:37:00;1.87;0.00;0.00
64861;PMS5003;62652;42.274;-71.436;2022-09-16T00:38:00;0.23;0.00;0.00
64861;PMS5003;62652;42.274;-71.436;2022-09-16T00:39:00;0.10;0.10;0.00
64861;PMS5003;62652;42.274;-71.436;2022-09-16T00:40:00;0.53;0.53;0.00
64861;PMS5003;62652;42.274;-71.436;2022-09-16T00:41:00;0.00;0.00;0.00
64861;PMS5003;62652;42.274;-71.436;2022-09-16T00:42:00;0.00;0.00;0.00
64861;PMS5003;62652;42.274;-71.436;2022-09-16T00:43:00;1.00;0.40;0.20
64861;PMS5003;62652;42.274;-71.436;2022-09-16T00:44:01;0.67;0.47;0.30
64861;PMS5003;62652;42.274;-71.436;2022-09-16T00:45:00;0.27;0.27;0.00
64861;PMS5003;62652;42.274;-71.436;2022-09-16T00:46:01;0.27;0.27;0.00
64861;PMS5003;62652;42.274;-71.436;2022-09-16T00:47:00;0.33;0.33;0.00
64861;PMS5003;62652;42.274;-71.436;2022-09-16T00:48:00;0.83;0.83;0.27
64861;PMS5003;62652;42.274;-71.436;2022-09-16T00:49:02;1.90;1.90;1.40
64861;PMS5003;62652;42.274;-71.436;2022-09-16T00:50:02;0.87;0.87;0.67
64861;PMS5003;62652;42.274;-71.436;2022-09-16T00:51:00;0.87;0.87;0.87
64861;PMS5003;62652;42.274;-71.436;2022-09-16T00:52:01;2.00;2.00;1.17
64861;PMS5003;62652;42.274;-71.436;2022-09-16T00:53:00;2.90;2.90;2.00
64861;PMS5003;62652;42.274;-71.436;2022-09-16T00:54:01;2.43;2.33;1.03
64861;PMS5003;62652;42.274;-71.436;2022-09-16T00:55:00;1.00;0.77;0.00
64861;PMS5003;62652;42.274;-71.436;2022-09-16T00:56:01;0.60;0.60;0.30
64861;PMS5003;62652;42.274;-71.436;2022-09-16T00:57:00;0.90;0.87;0.17
64861;PMS5003;62652;42.274;-71.436;2022-09-16T00:58:01;1.00;0.73;0.43
64861;PMS5003;62652;42.274;-71.436;2022-09-16T00:59:01;0.00;0.00;0.00
64861;PMS5003;62652;42.274;-71.436;2022-09-16T01:00:00;0.63;0.00;0.00
64861;PMS5003;62652;42.274;-71.436;2022-09-16T01:01:00;0.60;0.47;0.00
64861;PMS5003;62652;42.274;-71.436;2022-09-16T01:02:01;1.73;0.03;0.00
64861;PMS5003;62652;42.274;-71.436;2022-09-16T01:03:00;0.43;0.43;0.03
64861;PMS5003;62652;42.274;-71.436;2022-09-16T01:04:02;0.73;0.73;0.10
64861;PMS5003;62652;42.274;-71.436;2022-09-16T01:05:02;0.87;0.87;0.00
64861;PMS5003;62652;42.274;-71.436;2022-09-16T01:06:00;1.00;1.00;0.63
64861;PMS5003;62652;42.274;-71.436;2022-09-16T01:07:00;1.70;1.00;1.00
64861;PMS5003;62652;42.274;-71.436;2022-09-16T01:08:00;0.77;0.77;0.37
64861;PMS5003;62652;42.274;-71.436;2022-09-16T01:09:00;1.13;1.13;0.60
64861;PMS5003;62652;42.274;-71.436;2022-09-16T01:10:00;0.90;0.90;0.80
64861;PMS5003;62652;42.274;-71.436;2022-09-16T01:11:00;1.00;1.00;0.53
64861;PMS5003;62652;42.274;-71.436;2022-09-16T01:12:00;0.90;0.90;0.00
64861;PMS5003;62652;42.274;-71.436;2022-09-16T01:13:01;1.20;1.20;0.63
64861;PMS5003;62652;42.274;-71.436;2022-09-16T01:14:00;0.87;0.87;0.77
64861;PMS5003;62652;42.274;-71.436;2022-09-16T01:15:00;0.27;0.27;0.10
64861;PMS5003;62652;42.274;-71.436;2022-09-16T01:16:01;0.93;0.93;0.83
64861;PMS5003;62652;42.274;-71.436;2022-09-16T01:17:01;0.50;0.33;0.03
64861;PMS5003;62652;42.274;-71.436;2022-09-16T01:18:04;1.70;0.87;0.77
64861;PMS5003;62652;42.274;-71.436;2022-09-16T01:19:01;1.23;1.23;1.23
64861;PMS5003;62652;42.274;-71.436;2022-09-16T01:21:02;0.63;0.53;0.47
64861;PMS5003;62652;42.274;-71.436;2022-09-16T01:22:01;0.93;0.93;0.00
64861;PMS5003;62652;42.274;-71.436;2022-09-16T01:23:07;1.03;1.03;0.53
64861;PMS5003;62652;42.274;-71.436;2022-09-16T01:25:03;0.80;0.80;0.57
64861;PMS5003;62652;42.274;-71.436;2022-09-16T01:26:04;0.57;0.57;0.47
64861;PMS5003;62652;42.274;-71.436;2022-09-16T01:28:06;0.60;0.40;0.40
64861;PMS5003;62652;42.274;-71.436;2022-09-16T01:29:06;2.03;1.97;1.00
64861;PMS5003;62652;42.274;-71.436;2022-09-16T01:30:05;1.67;1.67;1.00
64861;PMS5003;62652;42.274;-71.436;2022-09-16T01:31:02;2.17;2.00;1.00
64861;PMS5003;62652;42.274;-71.436;2022-09-16T01:32:01;2.53;2.53;1.33
64861;PMS5003;62652;42.274;-71.436;2022-09-16T01:33:01;0.90;0.90;0.57
64861;PMS5003;62652;42.274;-71.436;2022-09-16T01:34:03;1.27;1.10;0.30
64861;PMS5003;62652;42.274;-71.436;2022-09-16T01:35:02;2.30;2.30;1.83
64861;PMS5003;62652;42.274;-71.436;2022-09-16T01:36:04;1.73;1.73;1.73
64861;PMS5003;62652;42.274;-71.436;2022-09-16T01:37:01;2.77;2.77;1.80
64861;PMS5003;62652;42.274;-71.436;2022-09-16T01:38:03;1.70;1.63;1.33
64861;PMS5003;62652;42.274;-71.436;2022-09-16T01:39:04;2.20;2.10;1.60
64861;PMS5003;62652;42.274;-71.436;2022-09-16T01:40:02;3.83;3.40;2.40
64861;PMS5003;62652;42.274;-71.436;2022-09-16T01:41:03;3.03;2.87;2.00
64861;PMS5003;62652;42.274;-71.436;2022-09-16T01:42:02;2.37;2.37;1.33
64861;PMS5003;62652;42.274;-71.436;2022-09-16T01:43:01;2.50;2.50;1.87
64861;PMS5003;62652;42.274;-71.436;2022-09-16T01:44:01;2.50;2.50;2.00
64861;PMS5003;62652;42.274;-71.436;2022-09-16T01:45:03;2.77;2.23;1.70
64861;PMS5003;62652;42.274;-71.436;2022-09-16T01:46:01;1.77;1.67;0.93
64861;PMS5003;62652;42.274;-71.436;2022-09-16T01:47:01;1.03;1.03;1.00
64861;PMS5003;62652;42.274;-71.436;2022-09-16T01:48:02;2.40;2.40;0.97
64861;PMS5003;62652;42.274;-71.436;2022-09-16T01:49:01;1.63;1.63;1.17
64861;PMS5003;62652;42.274;-71.436;2022-09-16T01:50:01;1.80;1.43;0.90
64861;PMS5003;62652;42.274;-71.436;2022-09-16T01:51:01;1.60;1.60;1.00
64861;PMS5003;62652;42.274;-71.436;2022-09-16T01:52:02;1.97;1.97;1.37
64861;PMS5003;62652;42.274;-71.436;2022-09-16T01:53:02;3.20;2.57;0.67
64861;PMS5003;62652;42.274;-71.436;2022-09-16T01:54:02;1.80;1.63;1.27
64861;PMS5003;62652;42.274;-71.436;2022-09-16T01:55:00;1.57;1.37;0.57
64861;PMS5003;62652;42.274;-71.436;2022-09-16T01:56:02;0.70;0.70;0.70
64861;PMS5003;62652;42.274;-71.436;2022-09-16T01:57:00;0.60;0.33;0.07
64861;PMS5003;62652;42.274;-71.436;2022-09-16T01:58:01;2.23;1.63;0.80
64861;PMS5003;62652;42.274;-71.436;2022-09-16T01:59:01;0.90;0.90;0.77
64861;PMS5003;62652;42.274;-71.436;2022-09-16T02:00:01;0.90;0.90;0.13
64861;PMS5003;62652;42.274;-71.436;2022-09-16T02:01:02;2.50;2.00;1.00
64861;PMS5003;62652;42.274;-71.436;2022-09-16T02:02:02;2.43;2.13;1.10
64861;PMS5003;62652;42.274;-71.436;2022-09-16T02:03:01;2.87;2.40;1.57
64861;PMS5003;62652;42.274;-71.436;2022-09-16T02:04:01;1.87;1.77;1.47
64861;PMS5003;62652;42.274;-71.436;2022-09-16T02:05:00;1.87;1.87;1.07
64861;PMS5003;62652;42.274;-71.436;2022-09-16T02:06:00;3.00;2.23;1.37
64861;PMS5003;62652;42.274;-71.436;2022-09-16T02:07:01;0.97;0.63;0.57
64861;PMS5003;62652;42.274;-71.436;2022-09-16T02:08:01;2.60;2.00;1.90
64861;PMS5003;62652;42.274;-71.436;2022-09-16T02:09:00;1.00;1.00;1.00
64861;PMS5003;62652;42.274;-71.436;2022-09-16T02:10:02;2.63;2.63;1.70
64861;PMS5003;62652;42.274;-71.436;2022-09-16T02:11:00;3.60;3.60;2.30
64861;PMS5003;62652;42.274;-71.436;2022-09-16T02:12:00;2.87;1.93;0.73
64861;PMS5003;62652;42.274;-71.436;2022-09-16T02:13:01;2.87;2.87;1.73
64861;PMS5003;62652;42.274;-71.436;2022-09-16T02:14:02;2.43;2.43;1.83
64861;PMS5003;62652;42.274;-71.436;2022-09-16T02:15:02;2.27;2.27;1.57
64861;PMS5003;62652;42.274;-71.436;2022-09-16T02:16:00;2.30;2.30;2.00
64861;PMS5003;62652;42.274;-71.436;2022-09-16T02:17:00;2.63;2.63;1.80
64861;PMS5003;62652;42.274;-71.436;2022-09-16T02:18:01;1.33;1.23;0.83
64861;PMS5003;62652;42.274;-71.436;2022-09-16T02:19:01;1.23;1.23;0.83
64861;PMS5003;62652;42.274;-71.436;2022-09-16T02:20:01;1.33;0.93;0.77
64861;PMS5003;62652;42.274;-71.436;2022-09-16T02:21:00;1.43;1.23;1.10
64861;PMS5003;62652;42.274;-71.436;2022-09-16T02:22:00;2.97;2.77;1.77
64861;PMS5003;62652;42.274;-71.436;2022-09-16T02:23:01;2.90;2.60;2.00
64861;PMS5003;62652;42.274;-71.436;2022-09-16T02:24:01;3.17;2.90;2.47
64861;PMS5003;62652;42.274;-71.436;2022-09-16T02:25:00;3.57;3.20;3.00
64861;PMS5003;62652;42.274;-71.436;2022-09-16T02:26:00;3.60;3.60;2.87
64861;PMS5003;62652;42.274;-71.436;2022-09-16T02:27:01;2.33;1.90;1.80
64861;PMS5003;62652;42.274;-71.436;2022-09-16T02:28:00;3.27;3.27;2.67
64861;PMS5003;62652;42.274;-71.436;2022-09-16T02:29:00;3.27;2.40;1.80
64861;PMS5003;62652;42.274;-71.436;2022-09-16T02:30:01;3.00;3.00;2.40
64861;PMS5003;62652;42.274;-71.436;2022-09-16T02:31:00;3.70;2.63;2.27
64861;PMS5003;62652;42.274;-71.436;2022-09-16T02:32:00;2.77;2.43;1.83
64861;PMS5003;62652;42.274;-71.436;2022-09-16T02:33:01;2.57;2.57;1.73
64861;PMS5003;62652;42.274;-71.436;2022-09-16T02:34:00;2.73;2.43;2.03
64861;PMS5003;62652;42.274;-71.436;2022-09-16T02:35:00;2.60;2.60;1.87
64861;PMS5003;62652;42.274;-71.436;2022-09-16T02:36:00;3.20;3.20;1.87
64861;PMS5003;62652;42.274;-71.436;2022-09-16T02:37:03;2.23;1.57;0.57
64861;PMS5003;62652;42.274;-71.436;2022-09-16T02:38:01;3.00;3.00;2.67
64861;PMS5003;62652;42.274;-71.436;2022-09-16T02:39:01;2.73;2.73;2.00
64861;PMS5003;62652;42.274;-71.436;2022-09-16T02:40:02;2.07;2.07;1.47
64861;PMS5003;62652;42.274;-71.436;2022-09-16T02:41:00;4.00;3.33;3.10
64861;PMS5003;62652;42.274;-71.436;2022-09-16T02:42:00;2.27;2.27;1.27
64861;PMS5003;62652;42.274;-71.436;2022-09-16T02:43:00;4.07;3.83;2.93
64861;PMS5003;62652;42.274;-71.436;2022-09-16T02:44:00;3.63;3.63;2.17
64861;PMS5003;62652;42.274;-71.436;2022-09-16T02:45:00;4.23;4.13;3.23
64861;PMS5003;62652;42.274;-71.436;2022-09-16T02:46:03;3.53;3.53;2.80
64861;PMS5003;62652;42.274;-71.436;2022-09-16T02:47:02;2.60;2.60;1.87
64861;PMS5003;62652;42.274;-71.436;2022-09-16T02:48:00;3.40;3.40;2.90
64861;PMS5003;62652;42.274;-71.436;2022-09-16T02:49:02;2.37;2.30;1.33
64861;PMS5003;62652;42.274;-71.436;2022-09-16T02:50:00;2.77;2.60;1.90
64861;PMS5003;62652;42.274;-71.436;2022-09-16T02:51:02;3.23;2.90;1.90
64861;PMS5003;62652;42.274;-71.436;2022-09-16T02:52:05;2.70;2.70;1.80
64861;PMS5003;62652;42.274;-71.436;2022-09-16T02:53:00;2.00;2.00;1.20
64861;PMS5003;62652;42.274;-71.436;2022-09-16T02:54:01;1.43;1.37;1.00
64861;PMS5003;62652;42.274;-71.436;2022-09-16T02:55:00;1.13;1.13;0.90
64861;PMS5003;62652;42.274;-71.436;2022-09-16T02:56:01;2.40;2.40;1.20
64861;PMS5003;62652;42.274;-71.436;2022-09-16T02:57:00;1.57;1.57;1.00
64861;PMS5003;62652;42.274;-71.436;2022-09-16T02:58:00;1.33;1.33;0.43
64861;PMS5003;62652;42.274;-71.436;2022-09-16T02:59:00;1.80;1.77;1.30
64861;PMS5003;62652;42.274;-71.436;2022-09-16T03:00:00;0.30;0.30;0.20
64861;PMS5003;62652;42.274;-71.436;2022-09-16T03:01:00;1.23;0.87;0.10
64861;PMS5003;62652;42.274;-71.436;2022-09-16T03:02:00;3.70;3.10;1.77
64861;PMS5003;62652;42.274;-71.436;2022-09-16T03:03:00;1.67;1.67;1.00
64861;PMS5003;62652;42.274;-71.436;2022-09-16T03:04:00;1.73;0.80;0.80
64861;PMS5003;62652;42.274;-71.436;2022-09-16T03:05:00;2.63;2.40;1.70
64861;PMS5003;62652;42.274;-71.436;2022-09-16T03:06:05;2.10;1.67;1.20
64861;PMS5003;62652;42.274;-71.436;2022-09-16T03:07:00;0.57;0.57;0.57
64861;PMS5003;62652;42.274;-71.436;2022-09-16T03:08:00;0.87;0.87;0.73
64861;PMS5003;62652;42.274;-71.436;2022-09-16T03:09:00;0.73;0.73;0.10
64861;PMS5003;62652;42.274;-71.436;2022-09-16T03:10:00;1.53;1.53;0.80
64861;PMS5003;62652;42.274;-71.436;2022-09-16T03:11:02;1.20;1.20;0.80
64861;PMS5003;62652;42.274;-71.436;2022-09-16T03:12:03;1.90;1.63;1.00
64861;PMS5003;62652;42.274;-71.436;2022-09-16T03:13:00;1.47;0.73;0.73
64861;PMS5003;62652;42.274;-71.436;2022-09-16T03:14:04;1.87;1.87;1.20
64861;PMS5003;62652;42.274;-71.436;2022-09-16T03:15:03;0.53;0.53;0.53
64861;PMS5003;62652;42.274;-71.436;2022-09-16T03:16:00;0.67;0.67;0.13
64861;PMS5003;62652;42.274;-71.436;2022-09-16T03:17:02;0.53;0.53;0.03
64861;PMS5003;62652;42.274;-71.436;2022-09-16T03:18:05;0.83;0.83;0.57
64861;PMS5003;62652;42.274;-71.436;2022-09-16T03:19:02;0.07;0.07;0.00
64861;PMS5003;62652;42.274;-71.436;2022-09-16T03:20:02;1.40;0.70;0.70
64861;PMS5003;62652;42.274;-71.436;2022-09-16T03:21:01;0.43;0.43;0.20
64861;PMS5003;62652;42.274;-71.436;2022-09-16T03:22:01;0.20;0.20;0.17
64861;PMS5003;62652;42.274;-71.436;2022-09-16T03:23:02;0.70;0.70;0.53
64861;PMS5003;62652;42.274;-71.436;2022-09-16T03:24:02;0.67;0.67;0.17
64861;PMS5003;62652;42.274;-71.436;2022-09-16T03:25:02;1.00;1.00;0.90
64861;PMS5003;62652;42.274;-71.436;2022-09-16T03:26:02;2.70;2.60;1.43
64861;PMS5003;62652;42.274;-71.436;2022-09-16T03:27:01;0.67;0.67;0.43
64861;PMS5003;62652;42.274;-71.436;2022-09-16T03:28:02;0.43;0.43;0.10
64861;PMS5003;62652;42.274;-71.436;2022-09-16T03:29:02;0.77;0.47;0.00
64861;PMS5003;62652;42.274;-71.436;2022-09-16T03:30:01;0.57;0.57;0.47
64861;PMS5003;62652;42.274;-71.436;2022-09-16T03:31:08;0.57;0.57;0.47
64861;PMS5003;62652;42.274;-71.436;2022-09-16T03:32:01;0.70;0.70;0.60
64861;PMS5003;62652;42.274;-71.436;2022-09-16T03:33:01;0.40;0.37;0.00
64861;PMS5003;62652;42.274;-71.436;2022-09-16T03:34:02;0.93;0.93;0.43
64861;PMS5003;62652;42.274;-71.436;2022-09-16T03:35:01;0.90;0.90;0.00
64861;PMS5003;62652;42.274;-71.436;2022-09-16T03:36:01;0.53;0.53;0.00
64861;PMS5003;62652;42.274;-71.436;2022-09-16T03:37:01;1.00;1.00;0.47
64861;PMS5003;62652;42.274;-71.436;2022-09-16T03:38:00;1.30;1.00;0.43
64861;PMS5003;62652;42.274;-71.436;2022-09-16T03:39:00;1.40;1.00;0.13
64861;PMS5003;62652;42.274;-71.436;2022-09-16T03:40:02;0.00;0.00;0.00
64861;PMS5003;62652;42.274;-71.436;2022-09-16T03:41:00;1.10;1.10;0.70
64861;PMS5003;62652;42.274;-71.436;2022-09-16T03:42:00;0.00;0.00;0.00
64861;PMS5003;62652;42.274;-71.436;2022-09-16T03:43:00;1.00;1.00;0.40
64861;PMS5003;62652;42.274;-71.436;2022-09-16T03:44:00;0.63;0.63;0.40
64861;PMS5003;62652;42.274;-71.436;2022-09-16T03:45:00;0.23;0.23;0.20
64861;PMS5003;62652;42.274;-71.436;2022-09-16T03:46:00;0.67;0.67;0.27
64861;PMS5003;62652;42.274;-71.436;2022-09-16T03:47:00;0.27;0.13;0.13
64861;PMS5003;62652;42.274;-71.436;2022-09-16T03:48:00;0.33;0.33;0.03
64861;PMS5003;62652;42.274;-71.436;2022-09-16T03:49:00;0.47;0.20;0.00
64861;PMS5003;62652;42.274;-71.436;2022-09-16T03:50:00;0.83;0.83;0.00
64861;PMS5003;62652;42.274;-71.436;2022-09-16T03:51:00;0.80;0.80;0.63
64861;PMS5003;62652;42.274;-71.436;2022-09-16T03:52:00;1.53;1.53;0.53
64861;PMS5003;62652;42.274;-71.436;2022-09-16T03:53:00;1.00;1.00;0.90
64861;PMS5003;62652;42.274;-71.436;2022-09-16T03:54:00;1.17;1.00;1.00
64861;PMS5003;62652;42.274;-71.436;2022-09-16T03:55:00;0.80;0.17;0.00
64861;PMS5003;62652;42.274;-71.436;2022-09-16T03:56:00;0.77;0.77;0.27
64861;PMS5003;62652;42.274;-71.436;2022-09-16T03:57:00;1.00;1.00;0.97
64861;PMS5003;62652;42.274;-71.436;2022-09-16T03:58:00;1.00;1.00;0.00
64861;PMS5003;62652;42.274;-71.436;2022-09-16T03:59:00;1.43;1.00;0.43
64861;PMS5003;62652;42.274;-71.436;2022-09-16T04:00:00;1.27;1.20;0.57
64861;PMS5003;62652;42.274;-71.436;2022-09-16T04:01:00;1.47;0.27;0.27
64861;PMS5003;62652;42.274;-71.436;2022-09-16T04:02:00;0.87;0.87;0.37
64861;PMS5003;62652;42.274;-71.436;2022-09-16T04:03:00;1.53;1.37;0.80
64861;PMS5003;62652;42.274;-71.436;2022-09-16T04:04:00;0.93;0.93;0.87
64861;PMS5003;62652;42.274;-71.436;2022-09-16T04:05:00;1.77;1.43;0.80
64861;PMS5003;62652;42.274;-71.436;2022-09-16T04:06:00;1.73;1.73;1.00
64861;PMS5003;62652;42.274;-71.436;2022-09-16T04:07:00;1.00;1.00;0.70
64861;PMS5003;62652;42.274;-71.436;2022-09-16T04:08:00;2.07;2.07;1.13
64861;PMS5003;62652;42.274;-71.436;2022-09-16T04:09:01;2.40;1.63;1.10
64861;PMS5003;62652;42.274;-71.436;2022-09-16T04:10:00;1.50;1.33;0.63
64861;PMS5003;62652;42.274;-71.436;2022-09-16T04:11:02;1.30;1.30;0.53
64861;PMS5003;62652;42.274;-71.436;2022-09-16T04:12:00;0.93;0.93;0.00
64861;PMS5003;62652;42.274;-71.436;2022-09-16T04:13:00;0.47;0.47;0.43
64861;PMS5003;62652;42.274;-71.436;2022-09-16T04:14:00;0.87;0.67;0.57
64861;PMS5003;62652;42.274;-71.436;2022-09-16T04:15:00;1.00;1.00;0.40
64861;PMS5003;62652;42.274;-71.436;2022-09-16T04:16:00;0.53;0.53;0.13
64861;PMS5003;62652;42.274;-71.436;2022-09-16T04:17:00;0.23;0.23;0.00
64861;PMS5003;62652;42.274;-71.436;2022-09-16T04:18:00;0.53;0.53;0.50
64861;PMS5003;62652;42.274;-71.436;2022-09-16T04:19:00;0.53;0.53;0.00
64861;PMS5003;62652;42.274;-71.436;2022-09-16T04:20:00;1.00;1.00;0.00
64861;PMS5003;62652;42.274;-71.436;2022-09-16T04:21:00;0.00;0.00;0.00
64861;PMS5003;62652;42.274;-71.436;2022-09-16T04:22:00;0.03;0.03;0.00
64861;PMS5003;62652;42.274;-71.436;2022-09-16T04:23:00;0.53;0.53;0.13
64861;PMS5003;62652;42.274;-71.436;2022-09-16T04:24:00;0.47;0.47;0.00
64861;PMS5003;62652;42.274;-71.436;2022-09-16T04:25:00;0.23;0.23;0.00
64861;PMS5003;62652;42.274;-71.436;2022-09-16T04:26:00;0.63;0.07;0.00
64861;PMS5003;62652;42.274;-71.436;2022-09-16T04:27:00;0.37;0.27;0.00
64861;PMS5003;62652;42.274;-71.436;2022-09-16T04:28:00;0.10;0.00;0.00
64861;PMS5003;62652;42.274;-71.436;2022-09-16T04:29:00;0.17;0.17;0.00
64861;PMS5003;62652;42.274;-71.436;2022-09-16T04:30:00;0.47;0.43;0.00
64861;PMS5003;62652;42.274;-71.436;2022-09-16T04:31:00;1.57;1.57;0.27
64861;PMS5003;62652;42.274;-71.436;2022-09-16T04:32:00;0.00;0.00;0.00
64861;PMS5003;62652;42.274;-71.436;2022-09-16T04:33:00;1.10;1.10;0.73
64861;PMS5003;62652;42.274;-71.436;2022-09-16T04:34:00;0.00;0.00;0.00
64861;PMS5003;62652;42.274;-71.436;2022-09-16T04:35:00;0.10;0.10;0.00
64861;PMS5003;62652;42.274;-71.436;2022-09-16T04:36:01;0.00;0.00;0.00
64861;PMS5003;62652;42.274;-71.436;2022-09-16T04:37:00;0.10;0.10;0.00
64861;PMS5003;62652;42.274;-71.436;2022-09-16T04:38:00;0.33;0.33;0.00
64861;PMS5003;62652;42.274;-71.436;2022-09-16T04:39:00;0.37;0.27;0.00
64861;PMS5003;62652;42.274;-71.436;2022-09-16T04:40:00;0.87;0.57;0.33
64861;PMS5003;62652;42.274;-71.436;2022-09-16T04:41:00;0.87;0.87;0.00
64861;PMS5003;62652;42.274;-71.436;2022-09-16T04:42:00;0.37;0.37;0.17
64861;PMS5003;62652;42.274;-71.436;2022-09-16T04:43:00;0.17;0.17;0.10
64861;PMS5003;62652;42.274;-71.436;2022-09-16T04:44:00;1.07;1.00;0.87
64861;PMS5003;62652;42.274;-71.436;2022-09-16T04:45:00;0.67;0.67;0.37
64861;PMS5003;62652;42.274;-71.436;2022-09-16T04:46:00;0.00;0.00;0.00
64861;PMS5003;62652;42.274;-71.436;2022-09-16T04:47:00;0.30;0.30;0.00
64861;PMS5003;62652;42.274;-71.436;2022-09-16T04:48:00;0.00;0.00;0.00
64861;PMS5003;62652;42.274;-71.436;2022-09-16T04:49:00;0.53;0.33;0.00
64861;PMS5003;62652;42.274;-71.436;2022-09-16T04:50:00;0.63;0.63;0.20
64861;PMS5003;62652;42.274;-71.436;2022-09-16T04:51:01;0.40;0.13;0.13
64861;PMS5003;62652;42.274;-71.436;2022-09-16T04:52:00;0.83;0.43;0.00
64861;PMS5003;62652;42.274;-71.436;2022-09-16T04:53:00;0.90;0.53;0.00
64861;PMS5003;62652;42.274;-71.436;2022-09-16T04:54:00;0.27;0.27;0.17
64861;PMS5003;62652;42.274;-71.436;2022-09-16T04:55:00;1.67;0.80;0.00
64861;PMS5003;62652;42.274;-71.436;2022-09-16T04:56:02;0.77;0.77;0.50
64861;PMS5003;62652;42.274;-71.436;2022-09-16T04:57:00;0.90;0.90;0.47
64861;PMS5003;62652;42.274;-71.436;2022-09-16T04:58:00;0.60;0.00;0.00
64861;PMS5003;62652;42.274;-71.436;2022-09-16T04:59:01;0.77;0.77;0.00
64861;PMS5003;62652;42.274;-71.436;2022-09-16T05:00:00;0.30;0.30;0.00
64861;PMS5003;62652;42.274;-71.436;2022-09-16T05:01:04;0.87;0.87;0.77
64861;PMS5003;62652;42.274;-71.436;2022-09-16T05:02:00;0.13;0.13;0.00
64861;PMS5003;62652;42.274;-71.436;2022-09-16T05:03:00;0.47;0.47;0.00
64861;PMS5003;62652;42.274;-71.436;2022-09-16T05:04:01;0.17;0.17;0.00
64861;PMS5003;62652;42.274;-71.436;2022-09-16T05:05:00;0.07;0.07;0.00
64861;PMS5003;62652;42.274;-71.436;2022-09-16T05:06:04;0.00;0.00;0.00
64861;PMS5003;62652;42.274;-71.436;2022-09-16T05:07:00;0.57;0.57;0.47
64861;PMS5003;62652;42.274;-71.436;2022-09-16T05:08:00;0.80;0.80;0.07
64861;PMS5003;62652;42.274;-71.436;2022-09-16T05:09:00;1.00;1.00;0.30
64861;PMS5003;62652;42.274;-71.436;2022-09-16T05:10:00;0.77;0.77;0.20
64861;PMS5003;62652;42.274;-71.436;2022-09-16T05:11:02;0.70;0.20;0.00
64861;PMS5003;62652;42.274;-71.436;2022-09-16T05:12:00;0.87;0.87;0.40
64861;PMS5003;62652;42.274;-71.436;2022-09-16T05:13:00;0.30;0.30;0.00
64861;PMS5003;62652;42.274;-71.436;2022-09-16T05:14:00;0.00;0.00;0.00
64861;PMS5003;62652;42.274;-71.436;2022-09-16T05:15:00;0.33;0.33;0.00
64861;PMS5003;62652;42.274;-71.436;2022-09-16T05:16:01;0.87;0.87;0.50
64861;PMS5003;62652;42.274;-71.436;2022-09-16T05:17:00;1.00;1.00;0.00
64861;PMS5003;62652;42.274;-71.436;2022-09-16T05:18:00;0.87;0.87;0.30
64861;PMS5003;62652;42.274;-71.436;2022-09-16T05:19:00;1.10;1.00;0.10
64861;PMS5003;62652;42.274;-71.436;2022-09-16T05:20:00;0.60;0.60;0.00
64861;PMS5003;62652;42.274;-71.436;2022-09-16T05:21:01;0.23;0.23;0.00
64861;PMS5003;62652;42.274;-71.436;2022-09-16T05:22:00;0.57;0.10;0.00
64861;PMS5003;62652;42.274;-71.436;2022-09-16T05:23:00;0.83;0.83;0.00
64861;PMS5003;62652;42.274;-71.436;2022-09-16T05:24:00;0.70;0.70;0.17
64861;PMS5003;62652;42.274;-71.436;2022-09-16T05:25:00;0.00;0.00;0.00
64861;PMS5003;62652;42.274;-71.436;2022-09-16T05:26:01;0.00;0.00;0.00
64861;PMS5003;62652;42.274;-71.436;2022-09-16T05:27:00;0.97;0.97;0.00
64861;PMS5003;62652;42.274;-71.436;2022-09-16T05:28:00;0.80;0.17;0.00
64861;PMS5003;62652;42.274;-71.436;2022-09-16T05:29:00;0.43;0.43;0.00
64861;PMS5003;62652;42.274;-71.436;2022-09-16T05:30:00;0.43;0.43;0.00
64861;PMS5003;62652;42.274;-71.436;2022-09-16T05:31:08;0.47;0.47;0.00
64861;PMS5003;62652;42.274;-71.436;2022-09-16T05:32:01;0.00;0.00;0.00
64861;PMS5003;62652;42.274;-71.436;2022-09-16T05:33:00;0.47;0.47;0.00
64861;PMS5003;62652;42.274;-71.436;2022-09-16T05:34:01;0.83;0.83;0.00
64861;PMS5003;62652;42.274;-71.436;2022-09-16T05:35:00;0.53;0.53;0.03
64861;PMS5003;62652;42.274;-71.436;2022-09-16T05:36:02;0.67;0.67;0.00
64861;PMS5003;62652;42.274;-71.436;2022-09-16T05:37:00;0.43;0.43;0.07
64861;PMS5003;62652;42.274;-71.436;2022-09-16T05:38:00;0.73;0.73;0.53
64861;PMS5003;62652;42.274;-71.436;2022-09-16T05:39:00;0.20;0.20;0.00
64861;PMS5003;62652;42.274;-71.436;2022-09-16T05:40:00;0.90;0.90;0.10
64861;PMS5003;62652;42.274;-71.436;2022-09-16T05:41:00;0.93;0.93;0.87
64861;PMS5003;62652;42.274;-71.436;2022-09-16T05:42:00;0.87;0.80;0.40
64861;PMS5003;62652;42.274;-71.436;2022-09-16T05:43:00;0.43;0.33;0.33